Diomede, Alaska
Current Conditions -  °F | °C
As of 3:58 PM on Monday 20 Oct 2014 (Local Time) from PATE Reporting Station
Overcast Overcast  
Wind Chill: -5°   Ceiling: 5500
Heat Index: -1°   Visibility: 10mi
Dew Point: -4°   Wind: 9mph
Humidity: 76%   Direction: 60°ENE
Pressure: 29.38"   Gusts: NA
Location:  65.1617°N, 164.975°W
Report Text: PATE 202358Z AUTO 06008KT 10SM OVC055 M01/M04 A2938 RMK AO2 SLP961 T10061044 10000 21033 56003 FZRANO
Loading
Personal Weather Stations






























Interactive Weather Map
Tropical Storm Tracking
New forecast layout! Learn more

10-Day Weather Forecast

Advertisements
Track Severe Weather on mobile